Kaio Maru — JD2067 — position and weather

sailwx.info

Track history (hours):
 
Tides and Currents Weather Stations Pressure Air Temp Water Temp Dewpoint Dewpoint Depression Visibility Wind Speed Wind Dir Waves Ship Positions

Kaio Maru

Last reported at 2015-Jul-31 12:33 UTC. Time now 2015-Jul-31 13:25 UTC.
Position N 35°38' E 139°46'.

Length 36 m; draft 3.2 m.

Type: Tug. MMSI: 431001455.

Date/timePositionNaut miles runAvg speedWind from/ knotsBaromVisibWave heightAir tempDewpointWater temp
2015-Jul-31 12:33N 35°38' E 139°46'0 0.0
2015-Jul-31 11:33N 35°38' E 139°46'0 0.0
2015-Jul-31 10:33N 35°38' E 139°46'1 0.6
2015-Jul-31 09:33N 35°38' E 139°46'2 1.5
2015-Jul-31 08:33N 35°36' E 139°46'2 1.8
2015-Jul-31 07:33N 35°38' E 139°46'2 2.0
2015-Jul-31 06:33N 35°36' E 139°47'2 2.3
2015-Jul-31 05:33N 35°38' E 139°45'0 0.0
2015-Jul-31 04:33N 35°38' E 139°45'0 0.0
2015-Jul-31 03:33N 35°38' E 139°45'0 0.0
2015-Jul-31 02:33N 35°38' E 139°45'1 0.5
2015-Jul-31 01:33N 35°38' E 139°46'4 3.8
2015-Jul-31 00:33N 35°35' E 139°48'4 4.3
2015-Jul-30 23:33N 35°38' E 139°45'0 0.0
2015-Jul-30 22:33N 35°38' E 139°45'0 0.0
2015-Jul-30 21:33N 35°38' E 139°45'0 0.0
2015-Jul-30 20:33N 35°38' E 139°45'0 0.0
2015-Jul-30 19:33N 35°38' E 139°45'0 0.0
2015-Jul-30 18:33N 35°38' E 139°45'0 0.0
2015-Jul-30 17:33N 35°38' E 139°45'0 0.0
2015-Jul-30 16:33N 35°38' E 139°45'0 0.0
2015-Jul-30 15:33N 35°38' E 139°45'0 0.0
2015-Jul-30 14:33N 35°38' E 139°45'0 0.0
2015-Jul-30 13:33N 35°38' E 139°45'0 0.0
2015-Jul-30 12:33N 35°38' E 139°45'0 0.0
2015-Jul-30 11:33N 35°38' E 139°45'0 0.0
2015-Jul-30 10:33N 35°38' E 139°45'0 0.0
2015-Jul-30 09:33N 35°38' E 139°45'0 0.0
2015-Jul-30 08:33N 35°38' E 139°45'0 0.0
2015-Jul-30 07:33N 35°38' E 139°45'0 0.0
2015-Jul-30 06:33N 35°38' E 139°45'0 0.0
2015-Jul-30 05:33N 35°38' E 139°45'0 0.0
2015-Jul-30 04:33N 35°38' E 139°45'0 0.0
2015-Jul-30 03:33N 35°38' E 139°45'0 0.0
2015-Jul-30 02:33N 35°38' E 139°45'0 0.0
2015-Jul-30 01:33N 35°38' E 139°45'0 0.0
2015-Jul-30 00:33N 35°38' E 139°45'2 2.2
2015-Jul-29 23:33N 35°36' E 139°47'3 2.7
2015-Jul-29 22:33N 35°34' E 139°48'2 2.4
2015-Jul-29 21:34N 35°36' E 139°47'2 2.4
2015-Jul-29 20:33N 35°38' E 139°46'0 0.0
2015-Jul-29 19:33N 35°38' E 139°46'0 0.0
2015-Jul-29 18:33N 35°38' E 139°46'0 0.0
2015-Jul-29 17:33N 35°38' E 139°46'0 0.0
2015-Jul-29 16:33N 35°38' E 139°46'0 0.0
2015-Jul-29 15:33N 35°38' E 139°46'0 0.0
2015-Jul-29 14:33N 35°38' E 139°46'0 0.0
2015-Jul-29 13:33N 35°38' E 139°46'0 0.0
2015-Jul-29 12:33N 35°38' E 139°46'0 0.0
2015-Jul-29 11:33N 35°38' E 139°46'0 0.0
2015-Jul-29 10:33N 35°38' E 139°46'0 0.0
2015-Jul-29 09:33N 35°38' E 139°46'0 0.0
2015-Jul-29 08:33N 35°38' E 139°46'0 0.0
2015-Jul-29 07:33N 35°38' E 139°46'0 0.0
2015-Jul-29 06:33N 35°38' E 139°46'0 0.0
2015-Jul-29 05:33N 35°38' E 139°46'0 0.0
2015-Jul-29 04:33N 35°38' E 139°46'0 0.2
2015-Jul-29 03:34N 35°38' E 139°46'4 4.2
2015-Jul-29 02:33N 35°35' E 139°48'4 4.3
2015-Jul-29 01:33N 35°38' E 139°46'0 0.0
2015-Jul-29 00:33N 35°38' E 139°46'0 0.0
2015-Jul-28 23:33N 35°38' E 139°46'0 0.0
2015-Jul-28 22:33N 35°38' E 139°46'0 0.0
2015-Jul-28 21:33N 35°38' E 139°46'0 0.0
2015-Jul-28 20:33N 35°38' E 139°46'0 0.0
2015-Jul-28 19:33N 35°38' E 139°46'0 0.0
2015-Jul-28 18:33N 35°38' E 139°46'0 0.0
2015-Jul-28 17:33N 35°38' E 139°46'0 0.0
2015-Jul-28 16:33N 35°38' E 139°46'0 0.0
2015-Jul-28 15:33N 35°38' E 139°46'0 0.0
2015-Jul-28 14:33N 35°38' E 139°46'0 0.0
2015-Jul-28 13:33N 35°38' E 139°46'0 0.0
2015-Jul-28 12:33N 35°38' E 139°46'0 0.0
2015-Jul-28 11:33N 35°38' E 139°46'0 0.0
2015-Jul-28 10:33N 35°38' E 139°46'0 0.1
2015-Jul-28 09:33N 35°38' E 139°45'2 2.4
2015-Jul-28 08:33N 35°36' E 139°47'2 2.4
2015-Jul-28 07:33N 35°38' E 139°46'0 0.0
2015-Jul-28 06:33N 35°38' E 139°46'0 0.0
2015-Jul-28 05:33N 35°38' E 139°46'0 0.0
2015-Jul-28 04:33N 35°38' E 139°46'0 0.0
2015-Jul-28 03:33N 35°38' E 139°46'0 0.0
2015-Jul-28 02:33N 35°38' E 139°46'0 0.0
2015-Jul-28 01:33N 35°38' E 139°46'0 0.0
2015-Jul-28 00:33N 35°38' E 139°46'0 0.0
2015-Jul-27 23:33N 35°38' E 139°46'0 0.0
2015-Jul-27 22:33N 35°38' E 139°46'0 0.0
2015-Jul-27 21:33N 35°38' E 139°46'0 0.0
2015-Jul-27 20:33N 35°38' E 139°46'0 0.0
2015-Jul-27 19:33N 35°38' E 139°46'0 0.0
2015-Jul-27 18:33N 35°38' E 139°46'0 0.0
2015-Jul-27 17:33N 35°38' E 139°46'0 0.0
2015-Jul-27 16:33N 35°38' E 139°46'0 0.0
2015-Jul-27 15:33N 35°38' E 139°46'0 0.0
2015-Jul-27 14:33N 35°38' E 139°46'0 0.0
2015-Jul-27 13:33N 35°38' E 139°46'0 0.0
2015-Jul-27 12:33N 35°38' E 139°46'0 0.0
2015-Jul-27 11:33N 35°38' E 139°46'0 0.0
2015-Jul-27 10:33N 35°38' E 139°46'0 0.0
2015-Jul-27 09:33N 35°38' E 139°46'0 0.0
2015-Jul-27 08:33N 35°38' E 139°46'0 0.0
2015-Jul-27 07:33N 35°38' E 139°46'0 0.0
2015-Jul-27 06:33N 35°38' E 139°46'0 0.0
2015-Jul-27 05:33N 35°38' E 139°46'0 0.0
2015-Jul-27 04:33N 35°38' E 139°46'0 0.0
2015-Jul-27 03:33N 35°38' E 139°46'0 0.0
2015-Jul-27 02:33N 35°38' E 139°46'0 0.0
2015-Jul-27 01:33N 35°38' E 139°46'0 0.0
2015-Jul-27 00:33N 35°38' E 139°46'0 0.0
2015-Jul-26 23:33N 35°38' E 139°46'2 2.2
2015-Jul-26 22:34N 35°36' E 139°47'1 1.4
2015-Jul-26 21:33N 35°35' E 139°47'4 3.6
2015-Jul-26 20:33N 35°38' E 139°45'0 0.0
2015-Jul-26 19:34N 35°38' E 139°45'0 0.0
2015-Jul-26 18:33N 35°38' E 139°45'0 0.0
2015-Jul-26 17:34N 35°38' E 139°45'0 0.0
2015-Jul-26 16:34N 35°38' E 139°45'0 0.0
2015-Jul-26 15:34N 35°38' E 139°45'0 0.0
2015-Jul-26 14:33N 35°38' E 139°45'0 0.0
2015-Jul-26 13:33N 35°38' E 139°45'0 0.0
2015-Jul-26 12:34N 35°38' E 139°45'0 0.0
2015-Jul-26 11:33N 35°38' E 139°45'0 0.0
2015-Jul-26 10:34N 35°38' E 139°45'0 0.0
2015-Jul-26 09:34N 35°38' E 139°45'0 0.0
2015-Jul-26 08:34N 35°38' E 139°45'0 0.0
2015-Jul-26 07:33N 35°38' E 139°45'0 0.0
2015-Jul-26 06:34N 35°38' E 139°45'0 0.0
2015-Jul-26 05:34N 35°38' E 139°45'0 0.0
2015-Jul-26 04:34N 35°38' E 139°45'0 0.0
2015-Jul-26 03:33N 35°38' E 139°45'0 0.0
2015-Jul-26 02:33N 35°38' E 139°45'0 0.0
2015-Jul-26 01:33N 35°38' E 139°45'0 0.0
2015-Jul-26 00:34N 35°38' E 139°45'0 0.0
2015-Jul-25 23:33N 35°38' E 139°45'0 0.0
2015-Jul-25 22:34N 35°38' E 139°45'0 0.0
2015-Jul-25 21:33N 35°38' E 139°45'0 0.0
2015-Jul-25 20:33N 35°38' E 139°45'0 0.0
2015-Jul-25 19:33N 35°38' E 139°45'0 0.0
2015-Jul-25 18:33N 35°38' E 139°45'0 0.0
2015-Jul-25 17:34N 35°38' E 139°45'0 0.0
2015-Jul-25 16:33N 35°38' E 139°45'0 0.0
2015-Jul-25 15:33N 35°38' E 139°45'0 0.0
2015-Jul-25 14:33N 35°38' E 139°45'0 0.0
2015-Jul-25 13:33N 35°38' E 139°45'0 0.0
2015-Jul-25 12:34N 35°38' E 139°45'0 0.0
2015-Jul-25 11:33N 35°38' E 139°45'0 0.0
2015-Jul-25 10:34N 35°38' E 139°45'0 0.0
2015-Jul-25 09:33N 35°38' E 139°45'0 0.0
2015-Jul-25 08:33N 35°38' E 139°45'0 0.0
2015-Jul-25 07:34N 35°38' E 139°45'0 0.0
2015-Jul-25 06:34N 35°38' E 139°45'0 0.0
2015-Jul-25 05:34N 35°38' E 139°45'0 0.0
2015-Jul-25 04:33N 35°38' E 139°45'0 0.0
2015-Jul-25 03:34N 35°38' E 139°45'0 0.0
2015-Jul-25 02:34N 35°38' E 139°45'0 0.0
2015-Jul-25 01:33N 35°38' E 139°45'0 0.0
2015-Jul-25 00:33N 35°38' E 139°45'0 0.0
2015-Jul-24 23:33N 35°38' E 139°45'0 0.0
2015-Jul-24 22:34N 35°38' E 139°45'0 0.0
2015-Jul-24 21:33N 35°38' E 139°45'0 0.0
2015-Jul-24 20:34N 35°38' E 139°45'0 0.0
2015-Jul-24 19:34N 35°38' E 139°45'0 0.0
2015-Jul-24 18:33N 35°38' E 139°45'0 0.0
2015-Jul-24 17:33N 35°38' E 139°45'0 0.0
2015-Jul-24 16:32N 35°38' E 139°45'0 0.0
2015-Jul-24 15:33N 35°38' E 139°45'0 0.0
2015-Jul-24 14:33N 35°38' E 139°45'0 0.0
2015-Jul-24 13:34N 35°38' E 139°45'0 0.0
2015-Jul-24 12:33N 35°38' E 139°45'0 0.0
2015-Jul-24 11:33N 35°38' E 139°45'0 0.0
2015-Jul-24 10:33N 35°38' E 139°45'0 0.0
2015-Jul-24 09:34N 35°38' E 139°45'0 0.0
2015-Jul-24 08:34N 35°38' E 139°45'0 0.0
2015-Jul-24 07:33N 35°38' E 139°45'0 0.0
2015-Jul-24 06:33N 35°38' E 139°45'0 0.0
2015-Jul-24 05:33N 35°38' E 139°45'0 0.0
2015-Jul-24 04:33N 35°38' E 139°45'0 0.0
2015-Jul-24 03:34N 35°38' E 139°45'0 0.0
2015-Jul-24 02:33N 35°38' E 139°45'0 0.0
2015-Jul-24 01:33N 35°38' E 139°45'0 0.0
2015-Jul-24 00:33N 35°38' E 139°45'0 0.0
2015-Jul-23 23:33N 35°38' E 139°45'0 0.0
2015-Jul-23 22:33N 35°38' E 139°45'0 0.0
2015-Jul-23 21:33N 35°38' E 139°45'2 2.1
2015-Jul-23 20:34N 35°36' E 139°47'2 2.0
2015-Jul-23 19:34N 35°38' E 139°45'0 0.0
2015-Jul-23 18:34N 35°38' E 139°45'0 0.0
2015-Jul-23 17:33N 35°38' E 139°45'0 0.0
2015-Jul-23 16:34N 35°38' E 139°45'0 0.0
2015-Jul-23 15:34N 35°38' E 139°45'0 0.0
2015-Jul-23 14:33N 35°38' E 139°45'0 0.0
2015-Jul-23 13:33N 35°38' E 139°45'0 0.0
2015-Jul-23 12:33N 35°38' E 139°45'0 0.0
2015-Jul-23 11:34N 35°38' E 139°45'0 0.0
2015-Jul-23 10:33N 35°38' E 139°45'2 2.2
2015-Jul-23 09:34N 35°36' E 139°47'1 0.7
2015-Jul-23 08:33N 35°37' E 139°46'2 1.6
2015-Jul-23 07:33N 35°38' E 139°45'0 0.0
2015-Jul-23 06:31N 35°38' E 139°45'0 0.0
2015-Jul-23 05:33N 35°38' E 139°45'0 0.0
2015-Jul-23 04:33N 35°38' E 139°45'0 0.0
2015-Jul-23 03:33N 35°38' E 139°45'0 0.0
2015-Jul-23 02:34N 35°38' E 139°45'0 0.0
2015-Jul-23 01:33N 35°38' E 139°45'0 0.0
2015-Jul-23 00:33N 35°38' E 139°45'0 0.0
2015-Jul-22 23:33N 35°38' E 139°45'2 1.8
2015-Jul-22 22:32N 35°37' E 139°46'5 4.7
2015-Jul-22 21:33N 35°34' E 139°51'6 6.3
2015-Jul-22 20:33N 35°38' E 139°46'0 0.0
2015-Jul-22 19:33N 35°38' E 139°46'0 0.0
2015-Jul-22 18:33N 35°38' E 139°46'0 0.0
2015-Jul-22 17:33N 35°38' E 139°46'0 0.0
2015-Jul-22 16:33N 35°38' E 139°46'0 0.0
2015-Jul-22 15:33N 35°38' E 139°46'0 0.0
2015-Jul-22 14:33N 35°38' E 139°46'0 0.0
2015-Jul-22 13:33N 35°38' E 139°46'0 0.0
2015-Jul-22 12:33N 35°38' E 139°46'0 0.0
2015-Jul-22 11:33N 35°38' E 139°46'2 1.7
2015-Jul-22 10:33N 35°37' E 139°46'3 3.2
2015-Jul-22 09:33N 35°34' E 139°49'4 4.4
2015-Jul-22 08:34N 35°38' E 139°46'0 0.2
2015-Jul-22 07:33N 35°38' E 139°45'0 0.0
2015-Jul-22 06:33N 35°38' E 139°45'0 0.0
2015-Jul-22 05:31N 35°38' E 139°45'0 0.0
2015-Jul-22 04:34N 35°38' E 139°45'0 0.0
2015-Jul-22 03:34N 35°38' E 139°45'0 0.0
2015-Jul-22 02:33N 35°38' E 139°45'0 0.0
2015-Jul-22 01:33N 35°38' E 139°45'0 0.0
2015-Jul-22 00:33N 35°38' E 139°45'0 0.0
2015-Jul-21 23:33N 35°38' E 139°45'3 3.0
2015-Jul-21 22:34N 35°35' E 139°47'0 0.4
2015-Jul-21 21:33N 35°35' E 139°47'3 3.0
2015-Jul-21 20:33N 35°38' E 139°46'0 0.0
2015-Jul-21 19:34N 35°38' E 139°46'0 0.0
2015-Jul-21 18:33N 35°38' E 139°46'0 0.0
2015-Jul-21 17:33N 35°38' E 139°46'0 0.0
2015-Jul-21 16:33N 35°38' E 139°46'0 0.0
2015-Jul-21 15:33N 35°38' E 139°46'0 0.0
2015-Jul-21 14:33N 35°38' E 139°46'0 0.0
2015-Jul-21 13:33N 35°38' E 139°46'0 0.0
2015-Jul-21 12:33N 35°38' E 139°46'  
Track history (hours):
 
Tides and Currents Weather Stations Pressure Air Temp Water Temp Dewpoint Dewpoint Depression Visibility Wind Speed Wind Dir Waves Ship Positions

Kaio Maru

Last reported at 2015-Jul-31 12:33 UTC. Time now 2015-Jul-31 13:25 UTC.
Position N 35°38' E 139°46'.

Length 36 m; draft 3.2 m.

Type: Tug. MMSI: 431001455.

Date/timePositionNaut miles runAvg speedWind from/ knotsBaromVisibWave heightAir tempDewpointWater temp
2015-Jul-31 12:33N 35°38' E 139°46'0 0.0
2015-Jul-31 11:33N 35°38' E 139°46'0 0.0
2015-Jul-31 10:33N 35°38' E 139°46'1 0.6
2015-Jul-31 09:33N 35°38' E 139°46'2 1.5
2015-Jul-31 08:33N 35°36' E 139°46'2 1.8
2015-Jul-31 07:33N 35°38' E 139°46'2 2.0
2015-Jul-31 06:33N 35°36' E 139°47'2 2.3
2015-Jul-31 05:33N 35°38' E 139°45'0 0.0
2015-Jul-31 04:33N 35°38' E 139°45'0 0.0
2015-Jul-31 03:33N 35°38' E 139°45'0 0.0
2015-Jul-31 02:33N 35°38' E 139°45'1 0.5
2015-Jul-31 01:33N 35°38' E 139°46'4 3.8
2015-Jul-31 00:33N 35°35' E 139°48'4 4.3
2015-Jul-30 23:33N 35°38' E 139°45'0 0.0
2015-Jul-30 22:33N 35°38' E 139°45'0 0.0
2015-Jul-30 21:33N 35°38' E 139°45'0 0.0
2015-Jul-30 20:33N 35°38' E 139°45'0 0.0
2015-Jul-30 19:33N 35°38' E 139°45'0 0.0
2015-Jul-30 18:33N 35°38' E 139°45'0 0.0
2015-Jul-30 17:33N 35°38' E 139°45'0 0.0
2015-Jul-30 16:33N 35°38' E 139°45'0 0.0
2015-Jul-30 15:33N 35°38' E 139°45'0 0.0
2015-Jul-30 14:33N 35°38' E 139°45'0 0.0
2015-Jul-30 13:33N 35°38' E 139°45'0 0.0
2015-Jul-30 12:33N 35°38' E 139°45'0 0.0
2015-Jul-30 11:33N 35°38' E 139°45'0 0.0
2015-Jul-30 10:33N 35°38' E 139°45'0 0.0
2015-Jul-30 09:33N 35°38' E 139°45'0 0.0
2015-Jul-30 08:33N 35°38' E 139°45'0 0.0
2015-Jul-30 07:33N 35°38' E 139°45'0 0.0
2015-Jul-30 06:33N 35°38' E 139°45'0 0.0
2015-Jul-30 05:33N 35°38' E 139°45'0 0.0
2015-Jul-30 04:33N 35°38' E 139°45'0 0.0
2015-Jul-30 03:33N 35°38' E 139°45'0 0.0
2015-Jul-30 02:33N 35°38' E 139°45'0 0.0
2015-Jul-30 01:33N 35°38' E 139°45'0 0.0
2015-Jul-30 00:33N 35°38' E 139°45'2 2.2
2015-Jul-29 23:33N 35°36' E 139°47'3 2.7
2015-Jul-29 22:33N 35°34' E 139°48'2 2.4
2015-Jul-29 21:34N 35°36' E 139°47'2 2.4
2015-Jul-29 20:33N 35°38' E 139°46'0 0.0
2015-Jul-29 19:33N 35°38' E 139°46'0 0.0
2015-Jul-29 18:33N 35°38' E 139°46'0 0.0
2015-Jul-29 17:33N 35°38' E 139°46'0 0.0
2015-Jul-29 16:33N 35°38' E 139°46'0 0.0
2015-Jul-29 15:33N 35°38' E 139°46'0 0.0
2015-Jul-29 14:33N 35°38' E 139°46'0 0.0
2015-Jul-29 13:33N 35°38' E 139°46'0 0.0
2015-Jul-29 12:33N 35°38' E 139°46'0 0.0
2015-Jul-29 11:33N 35°38' E 139°46'0 0.0
2015-Jul-29 10:33N 35°38' E 139°46'0 0.0
2015-Jul-29 09:33N 35°38' E 139°46'0 0.0
2015-Jul-29 08:33N 35°38' E 139°46'0 0.0
2015-Jul-29 07:33N 35°38' E 139°46'0 0.0
2015-Jul-29 06:33N 35°38' E 139°46'0 0.0
2015-Jul-29 05:33N 35°38' E 139°46'0 0.0
2015-Jul-29 04:33N 35°38' E 139°46'0 0.2
2015-Jul-29 03:34N 35°38' E 139°46'4 4.2
2015-Jul-29 02:33N 35°35' E 139°48'4 4.3
2015-Jul-29 01:33N 35°38' E 139°46'0 0.0
2015-Jul-29 00:33N 35°38' E 139°46'0 0.0
2015-Jul-28 23:33N 35°38' E 139°46'0 0.0
2015-Jul-28 22:33N 35°38' E 139°46'0 0.0
2015-Jul-28 21:33N 35°38' E 139°46'0 0.0
2015-Jul-28 20:33N 35°38' E 139°46'0 0.0
2015-Jul-28 19:33N 35°38' E 139°46'0 0.0
2015-Jul-28 18:33N 35°38' E 139°46'0 0.0
2015-Jul-28 17:33N 35°38' E 139°46'0 0.0
2015-Jul-28 16:33N 35°38' E 139°46'0 0.0
2015-Jul-28 15:33N 35°38' E 139°46'0 0.0
2015-Jul-28 14:33N 35°38' E 139°46'0 0.0
2015-Jul-28 13:33N 35°38' E 139°46'0 0.0
2015-Jul-28 12:33N 35°38' E 139°46'0 0.0
2015-Jul-28 11:33N 35°38' E 139°46'0 0.0
2015-Jul-28 10:33N 35°38' E 139°46'0 0.1
2015-Jul-28 09:33N 35°38' E 139°45'2 2.4
2015-Jul-28 08:33N 35°36' E 139°47'2 2.4
2015-Jul-28 07:33N 35°38' E 139°46'0 0.0
2015-Jul-28 06:33N 35°38' E 139°46'0 0.0
2015-Jul-28 05:33N 35°38' E 139°46'0 0.0
2015-Jul-28 04:33N 35°38' E 139°46'0 0.0
2015-Jul-28 03:33N 35°38' E 139°46'0 0.0
2015-Jul-28 02:33N 35°38' E 139°46'0 0.0
2015-Jul-28 01:33N 35°38' E 139°46'0 0.0
2015-Jul-28 00:33N 35°38' E 139°46'0 0.0
2015-Jul-27 23:33N 35°38' E 139°46'0 0.0
2015-Jul-27 22:33N 35°38' E 139°46'0 0.0
2015-Jul-27 21:33N 35°38' E 139°46'0 0.0
2015-Jul-27 20:33N 35°38' E 139°46'0 0.0
2015-Jul-27 19:33N 35°38' E 139°46'0 0.0
2015-Jul-27 18:33N 35°38' E 139°46'0 0.0
2015-Jul-27 17:33N 35°38' E 139°46'0 0.0
2015-Jul-27 16:33N 35°38' E 139°46'0 0.0
2015-Jul-27 15:33N 35°38' E 139°46'0 0.0
2015-Jul-27 14:33N 35°38' E 139°46'0 0.0
2015-Jul-27 13:33N 35°38' E 139°46'0 0.0
2015-Jul-27 12:33N 35°38' E 139°46'0 0.0
2015-Jul-27 11:33N 35°38' E 139°46'0 0.0
2015-Jul-27 10:33N 35°38' E 139°46'0 0.0
2015-Jul-27 09:33N 35°38' E 139°46'0 0.0
2015-Jul-27 08:33N 35°38' E 139°46'0 0.0
2015-Jul-27 07:33N 35°38' E 139°46'0 0.0
2015-Jul-27 06:33N 35°38' E 139°46'0 0.0
2015-Jul-27 05:33N 35°38' E 139°46'0 0.0
2015-Jul-27 04:33N 35°38' E 139°46'0 0.0
2015-Jul-27 03:33N 35°38' E 139°46'0 0.0
2015-Jul-27 02:33N 35°38' E 139°46'0 0.0
2015-Jul-27 01:33N 35°38' E 139°46'0 0.0
2015-Jul-27 00:33N 35°38' E 139°46'0 0.0
2015-Jul-26 23:33N 35°38' E 139°46'2 2.2
2015-Jul-26 22:34N 35°36' E 139°47'1 1.4
2015-Jul-26 21:33N 35°35' E 139°47'4 3.6
2015-Jul-26 20:33N 35°38' E 139°45'0 0.0
2015-Jul-26 19:34N 35°38' E 139°45'0 0.0
2015-Jul-26 18:33N 35°38' E 139°45'0 0.0
2015-Jul-26 17:34N 35°38' E 139°45'0 0.0
2015-Jul-26 16:34N 35°38' E 139°45'0 0.0
2015-Jul-26 15:34N 35°38' E 139°45'0 0.0
2015-Jul-26 14:33N 35°38' E 139°45'0 0.0
2015-Jul-26 13:33N 35°38' E 139°45'0 0.0
2015-Jul-26 12:34N 35°38' E 139°45'0 0.0
2015-Jul-26 11:33N 35°38' E 139°45'0 0.0
2015-Jul-26 10:34N 35°38' E 139°45'0 0.0
2015-Jul-26 09:34N 35°38' E 139°45'0 0.0
2015-Jul-26 08:34N 35°38' E 139°45'0 0.0
2015-Jul-26 07:33N 35°38' E 139°45'0 0.0
2015-Jul-26 06:34N 35°38' E 139°45'0 0.0
2015-Jul-26 05:34N 35°38' E 139°45'0 0.0
2015-Jul-26 04:34N 35°38' E 139°45'0 0.0
2015-Jul-26 03:33N 35°38' E 139°45'0 0.0
2015-Jul-26 02:33N 35°38' E 139°45'0 0.0
2015-Jul-26 01:33N 35°38' E 139°45'0 0.0
2015-Jul-26 00:34N 35°38' E 139°45'0 0.0
2015-Jul-25 23:33N 35°38' E 139°45'0 0.0
2015-Jul-25 22:34N 35°38' E 139°45'0 0.0
2015-Jul-25 21:33N 35°38' E 139°45'0 0.0
2015-Jul-25 20:33N 35°38' E 139°45'0 0.0
2015-Jul-25 19:33N 35°38' E 139°45'0 0.0
2015-Jul-25 18:33N 35°38' E 139°45'0 0.0
2015-Jul-25 17:34N 35°38' E 139°45'0 0.0
2015-Jul-25 16:33N 35°38' E 139°45'0 0.0
2015-Jul-25 15:33N 35°38' E 139°45'0 0.0
2015-Jul-25 14:33N 35°38' E 139°45'0 0.0
2015-Jul-25 13:33N 35°38' E 139°45'0 0.0
2015-Jul-25 12:34N 35°38' E 139°45'0 0.0
2015-Jul-25 11:33N 35°38' E 139°45'0 0.0
2015-Jul-25 10:34N 35°38' E 139°45'0 0.0
2015-Jul-25 09:33N 35°38' E 139°45'0 0.0
2015-Jul-25 08:33N 35°38' E 139°45'0 0.0
2015-Jul-25 07:34N 35°38' E 139°45'0 0.0
2015-Jul-25 06:34N 35°38' E 139°45'0 0.0
2015-Jul-25 05:34N 35°38' E 139°45'0 0.0
2015-Jul-25 04:33N 35°38' E 139°45'0 0.0
2015-Jul-25 03:34N 35°38' E 139°45'0 0.0
2015-Jul-25 02:34N 35°38' E 139°45'0 0.0
2015-Jul-25 01:33N 35°38' E 139°45'0 0.0
2015-Jul-25 00:33N 35°38' E 139°45'0 0.0
2015-Jul-24 23:33N 35°38' E 139°45'0 0.0
2015-Jul-24 22:34N 35°38' E 139°45'0 0.0
2015-Jul-24 21:33N 35°38' E 139°45'0 0.0
2015-Jul-24 20:34N 35°38' E 139°45'0 0.0
2015-Jul-24 19:34N 35°38' E 139°45'0 0.0
2015-Jul-24 18:33N 35°38' E 139°45'0 0.0
2015-Jul-24 17:33N 35°38' E 139°45'0 0.0
2015-Jul-24 16:32N 35°38' E 139°45'0 0.0
2015-Jul-24 15:33N 35°38' E 139°45'0 0.0
2015-Jul-24 14:33N 35°38' E 139°45'0 0.0
2015-Jul-24 13:34N 35°38' E 139°45'0 0.0
2015-Jul-24 12:33N 35°38' E 139°45'0 0.0
2015-Jul-24 11:33N 35°38' E 139°45'0 0.0
2015-Jul-24 10:33N 35°38' E 139°45'0 0.0
2015-Jul-24 09:34N 35°38' E 139°45'0 0.0
2015-Jul-24 08:34N 35°38' E 139°45'0 0.0
2015-Jul-24 07:33N 35°38' E 139°45'0 0.0
2015-Jul-24 06:33N 35°38' E 139°45'0 0.0
2015-Jul-24 05:33N 35°38' E 139°45'0 0.0
2015-Jul-24 04:33N 35°38' E 139°45'0 0.0
2015-Jul-24 03:34N 35°38' E 139°45'0 0.0
2015-Jul-24 02:33N 35°38' E 139°45'0 0.0
2015-Jul-24 01:33N 35°38' E 139°45'0 0.0
2015-Jul-24 00:33N 35°38' E 139°45'0 0.0
2015-Jul-23 23:33N 35°38' E 139°45'0 0.0
2015-Jul-23 22:33N 35°38' E 139°45'0 0.0
2015-Jul-23 21:33N 35°38' E 139°45'2 2.1
2015-Jul-23 20:34N 35°36' E 139°47'2 2.0
2015-Jul-23 19:34N 35°38' E 139°45'0 0.0
2015-Jul-23 18:34N 35°38' E 139°45'0 0.0
2015-Jul-23 17:33N 35°38' E 139°45'0 0.0
2015-Jul-23 16:34N 35°38' E 139°45'0 0.0
2015-Jul-23 15:34N 35°38' E 139°45'0 0.0
2015-Jul-23 14:33N 35°38' E 139°45'0 0.0
2015-Jul-23 13:33N 35°38' E 139°45'0 0.0
2015-Jul-23 12:33N 35°38' E 139°45'0 0.0
2015-Jul-23 11:34N 35°38' E 139°45'0 0.0
2015-Jul-23 10:33N 35°38' E 139°45'2 2.2
2015-Jul-23 09:34N 35°36' E 139°47'1 0.7
2015-Jul-23 08:33N 35°37' E 139°46'2 1.6
2015-Jul-23 07:33N 35°38' E 139°45'0 0.0
2015-Jul-23 06:31N 35°38' E 139°45'0 0.0
2015-Jul-23 05:33N 35°38' E 139°45'0 0.0
2015-Jul-23 04:33N 35°38' E 139°45'0 0.0
2015-Jul-23 03:33N 35°38' E 139°45'0 0.0
2015-Jul-23 02:34N 35°38' E 139°45'0 0.0
2015-Jul-23 01:33N 35°38' E 139°45'0 0.0
2015-Jul-23 00:33N 35°38' E 139°45'0 0.0
2015-Jul-22 23:33N 35°38' E 139°45'2 1.8
2015-Jul-22 22:32N 35°37' E 139°46'5 4.7
2015-Jul-22 21:33N 35°34' E 139°51'6 6.3
2015-Jul-22 20:33N 35°38' E 139°46'0 0.0
2015-Jul-22 19:33N 35°38' E 139°46'0 0.0
2015-Jul-22 18:33N 35°38' E 139°46'0 0.0
2015-Jul-22 17:33N 35°38' E 139°46'0 0.0
2015-Jul-22 16:33N 35°38' E 139°46'0 0.0
2015-Jul-22 15:33N 35°38' E 139°46'0 0.0
2015-Jul-22 14:33N 35°38' E 139°46'0 0.0
2015-Jul-22 13:33N 35°38' E 139°46'0 0.0
2015-Jul-22 12:33N 35°38' E 139°46'0 0.0
2015-Jul-22 11:33N 35°38' E 139°46'2 1.7
2015-Jul-22 10:33N 35°37' E 139°46'3 3.2
2015-Jul-22 09:33N 35°34' E 139°49'4 4.4
2015-Jul-22 08:34N 35°38' E 139°46'0 0.2
2015-Jul-22 07:33N 35°38' E 139°45'0 0.0
2015-Jul-22 06:33N 35°38' E 139°45'0 0.0
2015-Jul-22 05:31N 35°38' E 139°45'0 0.0
2015-Jul-22 04:34N 35°38' E 139°45'0 0.0
2015-Jul-22 03:34N 35°38' E 139°45'0 0.0
2015-Jul-22 02:33N 35°38' E 139°45'0 0.0
2015-Jul-22 01:33N 35°38' E 139°45'0 0.0
2015-Jul-22 00:33N 35°38' E 139°45'0 0.0
2015-Jul-21 23:33N 35°38' E 139°45'3 3.0
2015-Jul-21 22:34N 35°35' E 139°47'0 0.4
2015-Jul-21 21:33N 35°35' E 139°47'3 3.0
2015-Jul-21 20:33N 35°38' E 139°46'0 0.0
2015-Jul-21 19:34N 35°38' E 139°46'0 0.0
2015-Jul-21 18:33N 35°38' E 139°46'0 0.0
2015-Jul-21 17:33N 35°38' E 139°46'0 0.0
2015-Jul-21 16:33N 35°38' E 139°46'0 0.0
2015-Jul-21 15:33N 35°38' E 139°46'0 0.0
2015-Jul-21 14:33N 35°38' E 139°46'0 0.0
2015-Jul-21 13:33N 35°38' E 139°46'0 0.0
2015-Jul-21 12:33N 35°38' E 139°46'  

Dump ship's entire track history